sensor_id;sensor_type;location;lat;lon;timestamp;pressure;altitude;pressure_sealevel;temperature;humidity
48216;BME280;34005;48.844;10.098;2022-07-21T03:51:56;97039.81;;;22.91;69.91
48216;BME280;34005;48.844;10.098;2022-07-21T03:54:24;97045.16;;;22.91;71.47
48216;BME280;34005;48.844;10.098;2022-07-21T03:56:51;97049.97;;;22.94;72.25
48216;BME280;34005;48.844;10.098;2022-07-21T03:59:19;97052.88;;;22.93;70.64
48216;BME280;34005;48.844;10.098;2022-07-21T04:01:46;97046.75;;;22.92;70.64
48216;BME280;34005;48.844;10.098;2022-07-21T04:04:14;97050.22;;;22.93;71.96
48216;BME280;34005;48.844;10.098;2022-07-21T04:06:41;97052.63;;;22.94;73.25
48216;BME280;34005;48.844;10.098;2022-07-21T04:09:10;97062.22;;;22.95;71.32
48216;BME280;34005;48.844;10.098;2022-07-21T04:11:38;97070.94;;;22.91;70.28
48216;BME280;34005;48.844;10.098;2022-07-21T04:14:05;97066.41;;;22.91;72.09
48216;BME280;34005;48.844;10.098;2022-07-21T04:16:33;97071.75;;;22.91;71.39
48216;BME280;34005;48.844;10.098;2022-07-21T04:19:00;97069.09;;;22.91;71.29
48216;BME280;34005;48.844;10.098;2022-07-21T04:21:28;97072.56;;;22.92;72.34
48216;BME280;34005;48.844;10.098;2022-07-21T04:23:55;97083.50;;;22.95;72.82
48216;BME280;34005;48.844;10.098;2022-07-21T04:26:24;97085.13;;;22.96;71.90
48216;BME280;34005;48.844;10.098;2022-07-21T04:28:54;97086.72;;;22.97;72.13
48216;BME280;34005;48.844;10.098;2022-07-21T04:31:22;97083.25;;;22.97;72.30
48216;BME280;34005;48.844;10.098;2022-07-21T04:33:49;97088.94;;;23.00;73.13
48216;BME280;34005;48.844;10.098;2022-07-21T04:36:17;97088.81;;;22.95;69.73
48216;BME280;34005;48.844;10.098;2022-07-21T04:38:44;97094.13;;;22.95;72.33
48216;BME280;34005;48.844;10.098;2022-07-21T04:41:12;97106.63;;;22.95;70.81
48216;BME280;34005;48.844;10.098;2022-07-21T04:43:41;97104.22;;;22.93;70.84
48216;BME280;34005;48.844;10.098;2022-07-21T04:46:09;97105.84;;;22.94;71.04
48216;BME280;34005;48.844;10.098;2022-07-21T04:48:41;97092.00;;;22.92;69.88
48216;BME280;34005;48.844;10.098;2022-07-21T04:51:08;97101.56;;;22.93;70.63
48216;BME280;34005;48.844;10.098;2022-07-21T04:53:36;97112.19;;;22.93;70.50
48216;BME280;34005;48.844;10.098;2022-07-21T04:56:03;97125.03;;;22.96;72.80
48216;BME280;34005;48.844;10.098;2022-07-21T04:58:31;97119.69;;;22.96;70.35
48216;BME280;34005;48.844;10.098;2022-07-21T05:01:01;97117.53;;;22.93;70.26
48216;BME280;34005;48.844;10.098;2022-07-21T05:03:29;97109.88;;;22.97;71.83
48216;BME280;34005;48.844;10.098;2022-07-21T05:05:57;97117.84;;;22.97;70.82
48216;BME280;34005;48.844;10.098;2022-07-21T05:08:24;97125.03;;;22.96;70.81
48216;BME280;34005;48.844;10.098;2022-07-21T05:10:53;97132.13;;;22.91;69.25
48216;BME280;34005;48.844;10.098;2022-07-21T05:13:20;97125.97;;;22.85;69.64
48216;BME280;34005;48.844;10.098;2022-07-21T05:15:48;97122.41;;;22.79;68.70
48216;BME280;34005;48.844;10.098;2022-07-21T05:18:17;97141.78;;;22.75;68.27
48216;BME280;34005;48.844;10.098;2022-07-21T05:20:44;97129.50;;;22.74;70.21
48216;BME280;34005;48.844;10.098;2022-07-21T05:23:13;97122.59;;;22.73;70.25
48216;BME280;34005;48.844;10.098;2022-07-21T05:25:40;97129.50;;;22.74;70.87
48216;BME280;34005;48.844;10.098;2022-07-21T05:28:08;97132.44;;;22.72;70.62
48216;BME280;34005;48.844;10.098;2022-07-21T05:30:36;97134.03;;;22.73;71.27
48216;BME280;34005;48.844;10.098;2022-07-21T05:33:03;97136.13;;;22.71;70.76
48216;BME280;34005;48.844;10.098;2022-07-21T05:35:32;97148.31;;;22.67;69.52
48216;BME280;34005;48.844;10.098;2022-07-21T05:38:00;97146.16;;;22.64;69.16
48216;BME280;34005;48.844;10.098;2022-07-21T05:40:27;97150.69;;;22.63;70.26
48216;BME280;34005;48.844;10.098;2022-07-21T05:42:55;97151.81;;;22.68;72.87
48216;BME280;34005;48.844;10.098;2022-07-21T05:45:23;97152.09;;;22.71;72.78
48216;BME280;34005;48.844;10.098;2022-07-21T05:47:50;97153.41;;;22.69;70.77
48216;BME280;34005;48.844;10.098;2022-07-21T05:50:18;97150.97;;;22.67;70.32
48216;BME280;34005;48.844;10.098;2022-07-21T05:52:47;97153.16;;;22.70;70.62
48216;BME280;34005;48.844;10.098;2022-07-21T05:55:14;97148.63;;;22.71;70.72
48216;BME280;34005;48.844;10.098;2022-07-21T05:57:42;97146.53;;;22.73;72.08
48216;BME280;34005;48.844;10.098;2022-07-21T06:00:13;97145.00;;;22.77;71.79
48216;BME280;34005;48.844;10.098;2022-07-21T06:02:41;97140.47;;;22.77;70.13
48216;BME280;34005;48.844;10.098;2022-07-21T06:05:09;97135.47;;;22.81;71.99
48216;BME280;34005;48.844;10.098;2022-07-21T06:07:37;97137.06;;;22.82;70.19
48216;BME280;34005;48.844;10.098;2022-07-21T06:10:07;97139.25;;;22.85;71.35
48216;BME280;34005;48.844;10.098;2022-07-21T06:12:41;97154.72;;;22.88;71.25
48216;BME280;34005;48.844;10.098;2022-07-21T06:15:09;97158.72;;;22.91;71.31
48216;BME280;34005;48.844;10.098;2022-07-21T06:17:41;97160.66;;;22.95;70.76
48216;BME280;34005;48.844;10.098;2022-07-21T06:20:09;97162.00;;;22.98;72.19
48216;BME280;34005;48.844;10.098;2022-07-21T06:22:37;97168.75;;;23.00;71.48
48216;BME280;34005;48.844;10.098;2022-07-21T06:25:07;97169.75;;;22.99;69.80
48216;BME280;34005;48.844;10.098;2022-07-21T06:27:34;97172.66;;;22.98;69.97
48216;BME280;34005;48.844;10.098;2022-07-21T06:30:04;97173.94;;;22.95;68.68
48216;BME280;34005;48.844;10.098;2022-07-21T06:32:31;97186.69;;;22.93;68.89
48216;BME280;34005;48.844;10.098;2022-07-21T06:34:59;97177.91;;;22.93;70.60
48216;BME280;34005;48.844;10.098;2022-07-21T06:37:26;97180.34;;;22.94;69.03
48216;BME280;34005;48.844;10.098;2022-07-21T06:39:54;97188.31;;;22.94;68.81
48216;BME280;34005;48.844;10.098;2022-07-21T06:42:23;97187.00;;;22.97;69.17
48216;BME280;34005;48.844;10.098;2022-07-21T06:44:51;97176.72;;;23.00;68.62
48216;BME280;34005;48.844;10.098;2022-07-21T06:47:19;97182.09;;;23.06;69.10
48216;BME280;34005;48.844;10.098;2022-07-21T06:49:46;97182.16;;;23.11;67.80
48216;BME280;34005;48.844;10.098;2022-07-21T06:52:14;97183.78;;;23.12;67.58
48216;BME280;34005;48.844;10.098;2022-07-21T06:54:41;97189.38;;;23.15;67.29
48216;BME280;34005;48.844;10.098;2022-07-21T06:57:09;97199.22;;;23.15;66.53
48216;BME280;34005;48.844;10.098;2022-07-21T06:59:38;97192.00;;;23.10;66.09
48216;BME280;34005;48.844;10.098;2022-07-21T07:02:06;97200.22;;;23.09;68.05
48216;BME280;34005;48.844;10.098;2022-07-21T07:04:34;97201.84;;;23.10;68.36
48216;BME280;34005;48.844;10.098;2022-07-21T07:07:02;97207.97;;;23.10;67.08
48216;BME280;34005;48.844;10.098;2022-07-21T07:09:30;97210.63;;;23.10;67.09
48216;BME280;34005;48.844;10.098;2022-07-21T07:11:58;97209.59;;;23.11;67.20
48216;BME280;34005;48.844;10.098;2022-07-21T07:14:51;97215.72;;;23.12;68.18
48216;BME280;34005;48.844;10.098;2022-07-21T07:17:18;97218.59;;;23.10;64.75
48216;BME280;34005;48.844;10.098;2022-07-21T07:19:47;97217.81;;;23.10;65.84
48216;BME280;34005;48.844;10.098;2022-07-21T07:22:15;97226.66;;;23.15;66.16
48216;BME280;34005;48.844;10.098;2022-07-21T07:24:42;97224.88;;;23.21;66.35
48216;BME280;34005;48.844;10.098;2022-07-21T07:27:10;97215.34;;;23.25;67.48
48216;BME280;34005;48.844;10.098;2022-07-21T07:29:38;97213.22;;;23.27;65.73
48216;BME280;34005;48.844;10.098;2022-07-21T07:32:07;97221.78;;;23.29;65.73
48216;BME280;34005;48.844;10.098;2022-07-21T07:34:34;97214.91;;;23.33;63.89
48216;BME280;34005;48.844;10.098;2022-07-21T07:37:02;97215.47;;;23.35;65.18
48216;BME280;34005;48.844;10.098;2022-07-21T07:39:30;97227.47;;;23.38;64.31
48216;BME280;34005;48.844;10.098;2022-07-21T07:41:57;97228.63;;;23.47;66.33
48216;BME280;34005;48.844;10.098;2022-07-21T07:44:25;97216.69;;;23.50;62.20
48216;BME280;34005;48.844;10.098;2022-07-21T07:46:52;97211.34;;;23.50;61.57
48216;BME280;34005;48.844;10.098;2022-07-21T07:49:21;97210.56;;;23.49;61.30
48216;BME280;34005;48.844;10.098;2022-07-21T07:51:49;97212.66;;;23.47;60.83
48216;BME280;34005;48.844;10.098;2022-07-21T07:54:17;97206.22;;;23.43;61.03
48216;BME280;34005;48.844;10.098;2022-07-21T07:56:44;97212.91;;;23.45;62.98
48216;BME280;34005;48.844;10.098;2022-07-21T07:59:12;97210.00;;;23.47;61.74
48216;BME280;34005;48.844;10.098;2022-07-21T08:01:39;97216.91;;;23.48;62.20
48216;BME280;34005;48.844;10.098;2022-07-21T08:04:07;97210.34;;;23.56;61.09
48216;BME280;34005;48.844;10.098;2022-07-21T08:06:36;97210.13;;;23.57;60.54
48216;BME280;34005;48.844;10.098;2022-07-21T08:09:04;97200.81;;;23.60;61.29
48216;BME280;34005;48.844;10.098;2022-07-21T08:11:31;97207.25;;;23.64;61.16
48216;BME280;34005;48.844;10.098;2022-07-21T08:13:59;97210.50;;;23.71;62.79
48216;BME280;34005;48.844;10.098;2022-07-21T08:16:27;97202.66;;;23.81;61.63
48216;BME280;34005;48.844;10.098;2022-07-21T08:18:54;97201.94;;;23.91;61.00
48216;BME280;34005;48.844;10.098;2022-07-21T08:21:22;97207.88;;;23.98;59.94
48216;BME280;34005;48.844;10.098;2022-07-21T08:24:16;97205.53;;;24.07;59.55
48216;BME280;34005;48.844;10.098;2022-07-21T08:26:44;97208.53;;;24.16;58.00
48216;BME280;34005;48.844;10.098;2022-07-21T08:29:13;97216.84;;;24.19;58.04
48216;BME280;34005;48.844;10.098;2022-07-21T08:31:40;97216.88;;;24.24;57.79
48216;BME280;34005;48.844;10.098;2022-07-21T08:34:08;97214.78;;;24.26;57.01
48216;BME280;34005;48.844;10.098;2022-07-21T08:36:35;97210.78;;;24.29;57.92
48216;BME280;34005;48.844;10.098;2022-07-21T08:39:04;97216.19;;;24.34;58.39
48216;BME280;34005;48.844;10.098;2022-07-21T08:41:35;97215.97;;;24.41;59.13
48216;BME280;34005;48.844;10.098;2022-07-21T08:44:03;97214.44;;;24.50;57.97
48216;BME280;34005;48.844;10.098;2022-07-21T08:46:33;97218.22;;;24.54;56.46
48216;BME280;34005;48.844;10.098;2022-07-21T08:49:02;97212.91;;;24.59;56.50
48216;BME280;34005;48.844;10.098;2022-07-21T08:51:32;97219.34;;;24.63;56.39
48216;BME280;34005;48.844;10.098;2022-07-21T08:54:00;97219.63;;;24.67;56.30
48216;BME280;34005;48.844;10.098;2022-07-21T08:56:28;97219.41;;;24.74;55.95
48216;BME280;34005;48.844;10.098;2022-07-21T08:58:57;97223.19;;;24.83;56.16
48216;BME280;34005;48.844;10.098;2022-07-21T09:01:25;97222.97;;;24.90;55.49
48216;BME280;34005;48.844;10.098;2022-07-21T09:03:53;97218.97;;;24.92;55.29
48216;BME280;34005;48.844;10.098;2022-07-21T09:06:21;97221.13;;;24.95;55.25
48216;BME280;34005;48.844;10.098;2022-07-21T09:08:50;97219.03;;;24.97;55.00
48216;BME280;34005;48.844;10.098;2022-07-21T09:11:21;97228.09;;;25.01;56.45
48216;BME280;34005;48.844;10.098;2022-07-21T09:14:06;97232.69;;;25.06;53.92
48216;BME280;34005;48.844;10.098;2022-07-21T09:16:36;97229.22;;;25.11;54.45
48216;BME280;34005;48.844;10.098;2022-07-21T09:19:05;97227.91;;;25.13;53.54
48216;BME280;34005;48.844;10.098;2022-07-21T09:21:33;97217.50;;;25.17;53.73
48216;BME280;34005;48.844;10.098;2022-07-21T09:24:15;97218.09;;;25.24;53.71
48216;BME280;34005;48.844;10.098;2022-07-21T09:27:02;97217.06;;;25.30;52.84
48216;BME280;34005;48.844;10.098;2022-07-21T09:29:38;97217.56;;;25.27;51.88
48216;BME280;34005;48.844;10.098;2022-07-21T09:32:21;97215.72;;;25.33;52.69
48216;BME280;34005;48.844;10.098;2022-07-21T09:34:51;97214.41;;;25.40;51.74
48216;BME280;34005;48.844;10.098;2022-07-21T09:37:21;97213.09;;;25.48;51.62
48216;BME280;34005;48.844;10.098;2022-07-21T09:39:50;97211.25;;;25.54;51.53
48216;BME280;34005;48.844;10.098;2022-07-21T09:42:21;97215.00;;;25.58;53.13
48216;BME280;34005;48.844;10.098;2022-07-21T09:44:53;97216.63;;;25.64;53.85
48216;BME280;34005;48.844;10.098;2022-07-21T09:47:22;97213.44;;;25.72;54.54
48216;BME280;34005;48.844;10.098;2022-07-21T09:49:50;97211.06;;;25.81;52.26
48216;BME280;34005;48.844;10.098;2022-07-21T09:52:40;97209.22;;;25.92;51.71
48216;BME280;34005;48.844;10.098;2022-07-21T09:55:09;97214.56;;;26.02;51.78
48216;BME280;34005;48.844;10.098;2022-07-21T09:57:38;97211.91;;;26.12;50.89
48216;BME280;34005;48.844;10.098;2022-07-21T10:00:10;97215.94;;;26.20;49.84
48216;BME280;34005;48.844;10.098;2022-07-21T10:02:46;97211.38;;;26.25;49.20
48216;BME280;34005;48.844;10.098;2022-07-21T10:05:16;97213.53;;;26.28;50.98
48216;BME280;34005;48.844;10.098;2022-07-21T10:10:43;97213.25;;;26.40;49.49
48216;BME280;34005;48.844;10.098;2022-07-21T10:14:00;97204.41;;;26.45;48.93
48216;BME280;34005;48.844;10.098;2022-07-21T10:17:10;97207.34;;;26.48;48.74
48216;BME280;34005;48.844;10.098;2022-07-21T10:20:08;97209.25;;;26.48;48.58
48216;BME280;34005;48.844;10.098;2022-07-21T10:31:36;97214.59;;;26.48;48.57
48216;BME280;34005;48.844;10.098;2022-07-21T12:25:36;97116.72;;;28.01;38.75
48216;BME280;34005;48.844;10.098;2022-07-21T12:28:42;97122.31;;;28.05;39.89
48216;BME280;34005;48.844;10.098;2022-07-21T12:31:44;97118.56;;;28.06;39.69
48216;BME280;34005;48.844;10.098;2022-07-21T12:37:20;97107.81;;;28.06;39.61
48216;BME280;34005;48.844;10.098;2022-07-21T12:40:14;97114.22;;;28.10;39.41
48216;BME280;34005;48.844;10.098;2022-07-21T12:43:07;97118.75;;;28.14;40.05
48216;BME280;34005;48.844;10.098;2022-07-21T12:51:27;97114.09;;;28.25;39.28
48216;BME280;34005;48.844;10.098;2022-07-21T12:54:05;97110.81;;;28.28;38.63
48216;BME280;34005;48.844;10.098;2022-07-21T12:56:47;97107.88;;;28.30;38.15
48216;BME280;34005;48.844;10.098;2022-07-21T13:02:24;97103.81;;;28.32;39.13
48216;BME280;34005;48.844;10.098;2022-07-21T13:05:06;97109.69;;;28.34;39.59
48216;BME280;34005;48.844;10.098;2022-07-21T13:07:42;97113.69;;;28.37;39.70
48216;BME280;34005;48.844;10.098;2022-07-21T13:10:19;97114.22;;;28.39;38.86
48216;BME280;34005;48.844;10.098;2022-07-21T13:12:57;97107.47;;;28.42;38.63
48216;BME280;34005;48.844;10.098;2022-07-21T13:15:37;97106.41;;;28.43;38.71
48216;BME280;34005;48.844;10.098;2022-07-21T13:18:14;97106.59;;;28.46;39.40
48216;BME280;34005;48.844;10.098;2022-07-21T13:21:04;97096.41;;;28.48;38.06
48216;BME280;34005;48.844;10.098;2022-07-21T13:23:42;97095.88;;;28.46;37.46
48216;BME280;34005;48.844;10.098;2022-07-21T13:26:21;97095.34;;;28.44;37.46
48216;BME280;34005;48.844;10.098;2022-07-21T13:28:57;97094.28;;;28.45;38.27
48216;BME280;34005;48.844;10.098;2022-07-21T13:31:38;97092.38;;;28.51;38.66
48216;BME280;34005;48.844;10.098;2022-07-21T13:34:23;97088.81;;;28.55;39.81
48216;BME280;34005;48.844;10.098;2022-07-21T13:37:27;97092.03;;;28.58;38.70
48216;BME280;34005;48.844;10.098;2022-07-21T13:40:04;97091.22;;;28.57;38.80
48216;BME280;34005;48.844;10.098;2022-07-21T13:43:03;97095.00;;;28.56;37.71
48216;BME280;34005;48.844;10.098;2022-07-21T13:46:03;97078.91;;;28.56;38.67
48216;BME280;34005;48.844;10.098;2022-07-21T13:48:43;97086.66;;;28.58;38.87
48216;BME280;34005;48.844;10.098;2022-07-21T13:51:20;97090.69;;;28.60;38.71
48216;BME280;34005;48.844;10.098;2022-07-21T13:54:14;97093.84;;;28.62;38.96
48216;BME280;34005;48.844;10.098;2022-07-21T13:56:46;97086.88;;;28.61;38.29
48216;BME280;34005;48.844;10.098;2022-07-21T13:59:24;97079.94;;;28.60;38.59
48216;BME280;34005;48.844;10.098;2022-07-21T14:02:02;97082.91;;;28.59;37.72
48216;BME280;34005;48.844;10.098;2022-07-21T14:04:43;97077.28;;;28.55;37.81
48216;BME280;34005;48.844;10.098;2022-07-21T14:45:30;97072.06;;;28.40;40.27
48216;BME280;34005;48.844;10.098;2022-07-21T14:47:57;97060.81;;;28.38;40.53
48216;BME280;34005;48.844;10.098;2022-07-21T14:50:26;97066.78;;;28.34;39.97
48216;BME280;34005;48.844;10.098;2022-07-21T14:53:00;97064.63;;;28.31;39.59
48216;BME280;34005;48.844;10.098;2022-07-21T16:36:07;97022.88;;;27.67;39.06
48216;BME280;34005;48.844;10.098;2022-07-21T16:39:12;97018.59;;;27.66;38.87
48216;BME280;34005;48.844;10.098;2022-07-21T16:51:10;97006.34;;;27.60;39.06
48216;BME280;34005;48.844;10.098;2022-07-21T16:54:05;97012.22;;;27.62;37.33
48216;BME280;34005;48.844;10.098;2022-07-21T17:16:45;97016.56;;;27.52;40.77
48216;BME280;34005;48.844;10.098;2022-07-21T17:19:59;97005.06;;;27.52;41.06
48216;BME280;34005;48.844;10.098;2022-07-21T17:39:05;97009.97;;;27.40;38.05
48216;BME280;34005;48.844;10.098;2022-07-21T17:42:17;97014.53;;;27.39;39.60
48216;BME280;34005;48.844;10.098;2022-07-21T18:05:09;97019.72;;;27.25;39.13
48216;BME280;34005;48.844;10.098;2022-07-21T18:57:14;97022.44;;;26.70;45.42
48216;BME280;34005;48.844;10.098;2022-07-21T18:59:42;97022.72;;;26.69;44.78
48216;BME280;34005;48.844;10.098;2022-07-21T19:02:10;97013.91;;;26.63;44.52
48216;BME280;34005;48.844;10.098;2022-07-21T19:04:37;97018.75;;;26.61;45.33
48216;BME280;34005;48.844;10.098;2022-07-21T19:07:05;97020.91;;;26.59;45.98
48216;BME280;34005;48.844;10.098;2022-07-21T19:10:04;97034.81;;;26.56;45.52
48216;BME280;34005;48.844;10.098;2022-07-21T22:05:49;97091.09;;;22.42;54.38
48216;BME280;34005;48.844;10.098;2022-07-21T22:08:32;97091.59;;;22.39;54.62
48216;BME280;34005;48.844;10.098;2022-07-21T22:11:08;97104.56;;;22.36;54.44
48216;BME280;34005;48.844;10.098;2022-07-21T22:14:00;97098.41;;;22.30;54.75
48216;BME280;34005;48.844;10.098;2022-07-21T22:16:44;97094.84;;;22.25;54.55
48216;BME280;34005;48.844;10.098;2022-07-21T22:47:47;97092.75;;;21.93;55.37
48216;BME280;34005;48.844;10.098;2022-07-21T22:50:17;97087.91;;;21.90;55.18
48216;BME280;34005;48.844;10.098;2022-07-21T22:52:44;97083.56;;;21.84;55.51
48216;BME280;34005;48.844;10.098;2022-07-21T22:55:12;97089.84;;;21.77;55.77
48216;BME280;34005;48.844;10.098;2022-07-21T22:57:39;97082.38;;;21.74;55.91
48216;BME280;34005;48.844;10.098;2022-07-21T23:00:08;97084.38;;;21.67;56.08
48216;BME280;34005;48.844;10.098;2022-07-21T23:56:10;97070.84;;;20.94;57.93
